KSAT - San Antonio Intl, TX, US

Issued at 0522 UTC 26 May 2019
Updated at 0912 UTC 26 May 2019
Potential Impact None Slight Moderate High
Time0851Z 26/10Z 26/11Z 26/12Z 26/13Z 26/14Z 26/15Z 26/16Z 26/17Z 26/18Z 26/19Z 26/20Z 26/21Z 26/22Z>>
Type OBS PRVL PRVL PRVL PRVL PRVL PRVL PRVL PRVL PRVL PRVL PRVL PRVL PRVL
VIS 10 >6 >6 >6 >6 >6 >6 >6 >6 >6 >6 >6 >6 >6
CIG 15 7 7 7 7 7 15 35 35 35 35 35 250 250
Cover OVC OVC OVC OVC OVC OVC BKN BKN BKN BKN BKN BKN BKN BKN
FltCat MVFR IFR IFR IFR IFR IFR MVFR VFR VFR VFR VFR VFR VFR VFR
WX -- -- -- -- -- -- -- -- -- -- -- -- -- --
WDir 150 160 160 160 160 160 150 160 160 160 160 160 130 130
WSpd 10 12 12 12 12 12 12 15 15 15 15 15 15 15
WGst -- -- -- -- -- -- -- -- -- -- -- -- -- --
Raw TAF
KSAT 260522Z 2606/2712 14012KT P6SM BKN015
  FM260900 16012KT P6SM OVC007
  FM261500 15012KT P6SM BKN015
  FM261600 16015KT P6SM BKN035
  FM262100 13015KT P6SM SCT050 BKN250
  FM270600 16012KT P6SM BKN015


Raw METAR
KSAT 260851Z 15010KT 10SM BKN015 OVC022 24/21 A3001 RMK AO2 SLP141 T02390211 58003
KSAT 260813Z 14009KT 10SM SCT015 BKN021 OVC035 24/21 A3001 RMK AO2 T02390211
KSAT 260803Z 14009KT 10SM FEW015 SCT021 BKN036 24/21 A3001 RMK AO2 T02390211
KSAT 260751Z 16012KT 10SM BKN015 BKN021 BKN036 24/21 A3001 RMK AO2 SLP143 T02390211
KSAT 260651Z 15013G23KT 10SM BKN017 OVC021 24/21 A3002 RMK AO2 SLP145 T02390206

METAR Board
Radar Display
Forecast Discussion
For situational awareness. Not to be used for flight planning purposes.